Time;durP1;ratioP1;P1;durP2;ratioP2;P2;SDS_P1;SDS_P2;PMS_P1;PMS_P2;Temp;Humidity;BMP_temperature;BMP_pressure;BME280_temperature;BME280_humidity;BME280_pressure;Samples;Min_cycle;Max_cycle;Signal;HPM_P1;HPM_P2
2022/07/28 00:01:27;;;;;;;2.90;0.80;;;;;;;15.98;78.60;98941.90;105015;1271;76731;-25
2022/07/28 00:03:55;;;;;;;5.50;1.10;;;;;;;16.49;76.84;98939.23;104996;1271;77103;-25
2022/07/28 00:06:24;;;;;;;0.80;0.80;;;;;;;16.51;76.23;98940.38;104806;1271;75353;-25
2022/07/28 00:08:51;;;;;;;2.70;1.10;;;;;;;16.32;76.84;98939.61;104708;1271;62111;-25
2022/07/28 00:11:24;;;;;;;6.50;1.80;;;;;;;16.12;77.66;98940.72;104719;1271;61802;-25
2022/07/28 00:13:52;;;;;;;1.80;1.10;;;;;;;15.90;78.03;98938.32;104739;1271;76931;-25
2022/07/28 00:16:19;;;;;;;1.00;0.60;;;;;;;15.73;79.09;98936.30;104841;1271;75792;-24
2022/07/28 00:18:49;;;;;;;3.00;1.10;;;;;;;16.21;78.96;98939.01;104916;1271;74754;-25
2022/07/28 00:21:17;;;;;;;3.90;0.90;;;;;;;16.75;77.31;98933.77;104735;1271;62186;-25
2022/07/28 00:23:44;;;;;;;1.70;0.90;;;;;;;16.80;76.31;98933.79;104765;1271;63028;-25
2022/07/28 00:26:11;;;;;;;2.50;1.10;;;;;;;16.55;76.18;98927.52;104794;1271;76606;-25
2022/07/28 00:28:39;;;;;;;5.00;1.60;;;;;;;16.18;79.40;98929.56;105088;1271;75980;-25
2022/07/28 00:31:08;;;;;;;3.30;1.70;;;;;;;15.84;80.76;98932.96;105037;1271;75627;-25
2022/07/28 00:33:39;;;;;;;3.50;0.70;;;;;;;15.69;80.66;98931.70;105065;1271;64414;-25
2022/07/28 00:36:07;;;;;;;2.40;0.70;;;;;;;16.15;79.01;98932.27;105060;1271;61547;-25
2022/07/28 00:38:39;;;;;;;8.30;1.30;;;;;;;16.63;76.41;98935.14;104952;1271;76555;-25
2022/07/28 00:41:10;;;;;;;3.50;1.00;;;;;;;16.62;75.39;98935.77;104843;1271;77037;-25
2022/07/28 00:43:48;;;;;;;2.20;1.00;;;;;;;16.39;76.02;98930.67;105092;1271;74440;-25
2022/07/28 00:46:17;;;;;;;4.50;1.60;;;;;;;16.04;77.25;98930.37;105113;1271;61804;-24
2022/07/28 00:48:49;;;;;;;2.70;1.10;;;;;;;15.72;78.97;98933.34;104674;1271;61998;-25
2022/07/28 00:51:17;;;;;;;2.80;0.80;;;;;;;15.51;79.90;98936.65;104765;1271;76485;-25
2022/07/28 00:53:45;;;;;;;2.50;1.90;;;;;;;15.88;79.64;98935.43;104678;1271;77377;-25
2022/07/28 00:56:14;;;;;;;0.80;0.80;;;;;;;16.32;76.45;98933.63;105107;1272;75399;-25
2022/07/28 00:58:42;;;;;;;0.90;0.80;;;;;;;16.30;76.09;98934.94;104796;1271;61930;-25
2022/07/28 01:01:14;;;;;;;1.50;1.30;;;;;;;16.06;76.56;98935.39;105180;1271;61927;-25
2022/07/28 01:03:45;;;;;;;2.70;1.10;;;;;;;15.72;76.67;98936.64;105126;1270;76603;-25
2022/07/28 01:06:13;;;;;;;2.40;0.90;;;;;;;15.35;77.49;98934.50;104953;1271;75982;-24
2022/07/28 01:09:04;;;;;;;2.00;0.70;;;;;;;15.02;78.57;98940.08;104777;1271;75423;-25
2022/07/28 01:11:35;;;;;;;3.70;0.80;;;;;;;15.42;78.59;98937.94;105103;1272;63037;-25
2022/07/28 01:14:27;;;;;;;3.80;1.30;;;;;;;15.78;77.96;98937.44;104821;1274;62009;-24
2022/07/28 01:17:07;;;;;;;1.70;0.80;;;;;;;15.65;78.77;98940.81;104929;1274;75614;-25
2022/07/28 01:19:40;;;;;;;1.20;0.90;;;;;;;15.45;78.44;98945.36;104902;1272;76956;-25
2022/07/28 01:22:12;;;;;;;;;;;;;;;15.20;78.24;98947.56;105086;1274;75436;-25
2022/07/28 01:25:12;;;;;;;3.40;1.30;;;;;;;14.92;78.61;98951.20;104970;1271;62051;-24
2022/07/28 01:27:42;;;;;;;3.00;1.50;;;;;;;14.70;79.88;98950.09;105054;1271;63098;-25
2022/07/28 01:30:29;;;;;;;1.00;0.70;;;;;;;15.24;78.90;98954.80;104979;1270;76318;-24
2022/07/28 01:32:59;;;;;;;3.60;1.40;;;;;;;15.65;77.64;98951.92;105116;1271;76949;-25
2022/07/28 01:35:32;;;;;;;2.90;0.80;;;;;;;15.50;77.07;98959.55;104931;1271;75238;-25
2022/07/28 01:38:01;;;;;;;2.20;1.00;;;;;;;15.23;76.81;98959.68;104601;1271;63068;-25
2022/07/28 01:40:31;;;;;;;6.10;1.10;;;;;;;14.94;77.68;98960.13;104707;1271;62100;-25
2022/07/28 01:43:00;;;;;;;1.30;1.20;;;;;;;14.61;78.16;98963.98;104653;1271;76326;-25
2022/07/28 01:45:27;;;;;;;3.80;0.80;;;;;;;14.31;79.47;98963.04;104719;1271;77232;-25
2022/07/28 01:47:56;;;;;;;1.50;0.80;;;;;;;14.63;79.45;98968.66;105174;1271;75437;-25
2022/07/28 01:50:24;;;;;;;1.30;0.70;;;;;;;15.08;77.92;98975.20;104593;1271;62598;-25
2022/07/28 01:52:53;;;;;;;1.50;0.80;;;;;;;14.99;76.36;98974.64;104630;1272;63051;-25
2022/07/28 01:55:21;;;;;;;0.90;0.70;;;;;;;14.72;77.38;98974.40;104905;1271;76536;-25
2022/07/28 01:57:49;;;;;;;2.50;1.30;;;;;;;14.45;78.16;98974.36;104958;1271;76844;-25
2022/07/28 02:00:16;;;;;;;1.10;0.90;;;;;;;14.21;79.51;98976.65;104777;1271;72676;-25
2022/07/28 02:02:48;;;;;;;0.80;0.60;;;;;;;14.03;80.34;98979.71;105070;1271;61143;-25
2022/07/28 02:05:16;;;;;;;1.00;0.80;;;;;;;14.44;80.12;98981.68;104822;1271;62896;-25
2022/07/28 02:07:47;;;;;;;3.10;1.10;;;;;;;14.91;80.27;98985.13;104840;1271;76401;-25
2022/07/28 02:10:15;;;;;;;1.10;0.80;;;;;;;14.92;80.33;98988.11;105095;1271;76991;-26
2022/07/28 02:12:44;;;;;;;2.70;1.10;;;;;;;14.77;79.36;98984.20;104910;1271;74771;-25
2022/07/28 02:15:11;;;;;;;2.50;1.60;;;;;;;14.51;78.64;98982.49;104600;1274;62861;-25
2022/07/28 02:17:41;;;;;;;0.90;0.60;;;;;;;14.27;80.55;98985.60;104697;1271;61670;-25
2022/07/28 02:20:09;;;;;;;1.60;0.80;;;;;;;14.56;78.53;98989.52;104858;1271;75573;-25
2022/07/28 02:22:38;;;;;;;2.50;1.00;;;;;;;14.87;77.46;98987.00;104632;1271;75708;-25
2022/07/28 02:25:07;;;;;;;0.90;0.60;;;;;;;14.87;77.27;98985.45;104729;1272;74482;-25
2022/07/28 02:27:57;;;;;;;0.80;0.80;;;;;;;14.63;77.54;98987.98;104971;1271;61009;-25
2022/07/28 02:30:34;;;;;;;1.80;1.40;;;;;;;14.31;78.15;98987.30;105040;1270;62843;-25
2022/07/28 02:33:05;;;;;;;1.30;1.00;;;;;;;14.03;79.64;98991.93;105007;1271;75260;-25
2022/07/28 02:35:43;;;;;;;1.80;1.30;;;;;;;14.42;80.35;98994.01;104768;1271;77498;-25
2022/07/28 02:38:38;;;;;;;1.20;1.10;;;;;;;14.92;80.11;98994.96;104803;1274;75383;-25
2022/07/28 02:41:21;;;;;;;3.50;1.00;;;;;;;14.91;78.45;98987.48;104716;1271;61084;-25
2022/07/28 02:43:50;;;;;;;2.50;1.00;;;;;;;14.62;77.56;98989.33;104736;1274;60959;-25
2022/07/28 02:46:19;;;;;;;1.70;1.00;;;;;;;14.27;77.68;98991.47;104618;1274;74735;-25
2022/07/28 02:48:49;;;;;;;1.10;0.70;;;;;;;13.98;78.67;98992.77;104495;1274;76472;-25
2022/07/28 02:51:16;;;;;;;2.70;0.60;;;;;;;14.33;79.20;98992.48;104649;1274;75781;-25
2022/07/28 02:53:43;;;;;;;1.20;0.70;;;;;;;14.84;77.53;98992.39;104728;1274;62795;-25
2022/07/28 02:56:10;;;;;;;1.70;0.90;;;;;;;14.90;76.78;98995.31;104696;1274;62988;-25
2022/07/28 02:58:38;;;;;;;0.70;0.70;;;;;;;14.77;76.72;99006.59;104581;1274;75539;-25
2022/07/28 03:01:05;;;;;;;2.90;0.80;;;;;;;14.62;76.73;99008.55;104623;1274;77094;-25
2022/07/28 03:03:34;;;;;;;4.50;1.00;;;;;;;14.51;77.06;99007.00;104611;1274;74168;-25
2022/07/28 03:06:01;;;;;;;0.30;0.30;;;;;;;14.49;77.46;99008.05;104562;1274;64407;-25
2022/07/28 03:08:29;;;;;;;2.10;0.80;;;;;;;15.16;76.62;99017.36;104659;1272;61042;-25
2022/07/28 03:11:11;;;;;;;1.10;0.70;;;;;;;15.94;74.57;99015.90;104626;1272;76530;-25
2022/07/28 03:13:38;;;;;;;1.00;0.90;;;;;;;16.25;73.12;99021.19;104449;1274;75739;-25
2022/07/28 03:16:06;;;;;;;1.00;0.90;;;;;;;16.29;72.01;99020.72;104649;1274;75706;-25
2022/07/28 03:18:33;;;;;;;2.20;0.90;;;;;;;16.30;71.38;99021.81;104600;1274;63079;-26
2022/07/28 03:21:01;;;;;;;1.20;0.90;;;;;;;16.21;70.97;99022.59;104855;1274;61246;-25
2022/07/28 03:23:42;;;;;;;2.30;0.80;;;;;;;16.02;71.92;99027.31;105078;1274;76339;-25
2022/07/28 03:26:16;;;;;;;1.40;1.20;;;;;;;16.57;71.89;99029.95;104822;1274;75003;-25
2022/07/28 03:28:43;;;;;;;2.10;1.40;;;;;;;17.14;69.93;99033.05;104897;1274;75889;-25
2022/07/28 03:31:11;;;;;;;1.40;1.30;;;;;;;17.27;69.48;99033.21;104674;1274;61095;-25
2022/07/28 03:33:39;;;;;;;1.30;1.20;;;;;;;17.34;69.42;99035.77;104469;1274;61651;-25
2022/07/28 03:36:12;;;;;;;1.50;1.20;;;;;;;17.42;68.99;99038.92;104633;1274;74590;-25
2022/07/28 03:38:47;;;;;;;1.70;1.20;;;;;;;17.47;68.90;99040.49;104420;1271;76441;-25
2022/07/28 03:41:15;;;;;;;1.70;1.20;;;;;;;17.47;69.04;99040.65;104577;1274;75425;-25
2022/07/28 03:43:42;;;;;;;1.10;0.90;;;;;;;17.63;69.05;99042.30;104663;1271;63920;-25
2022/07/28 03:46:09;;;;;;;2.90;1.10;;;;;;;18.18;68.49;99038.08;104760;1271;62734;-25
2022/07/28 03:48:39;;;;;;;2.50;1.30;;;;;;;18.92;66.96;99035.06;104896;1271;76112;-25
2022/07/28 03:51:07;;;;;;;3.40;1.30;;;;;;;19.35;65.45;99037.30;105007;1271;76959;-25
2022/07/28 03:53:34;;;;;;;3.00;1.50;;;;;;;19.46;64.52;99038.59;104945;1271;75358;-25
2022/07/28 03:56:02;;;;;;;1.70;1.40;;;;;;;19.45;64.40;99038.34;104557;1274;62838;-25
2022/07/28 03:58:29;;;;;;;3.00;1.50;;;;;;;19.47;65.31;99034.30;104919;1271;62759;-24
2022/07/28 04:00:57;;;;;;;3.60;1.70;;;;;;;19.51;64.97;99037.19;104610;1274;76610;-25
2022/07/28 04:03:25;;;;;;;2.00;1.70;;;;;;;19.36;64.87;99037.89;104982;1271;77113;-25
2022/07/28 04:06:13;;;;;;;1.70;1.60;;;;;;;19.25;65.42;99036.68;105122;1271;75383;-24
2022/07/28 04:08:42;;;;;;;4.50;1.30;;;;;;;19.31;66.49;99038.71;104890;1271;61131;-25
2022/07/28 04:11:10;;;;;;;1.70;1.40;;;;;;;20.00;65.82;99041.22;104887;1271;61058;-25
2022/07/28 04:13:40;;;;;;;2.50;1.50;;;;;;;20.85;63.49;99041.27;104708;1274;77512;-25
2022/07/28 04:16:07;;;;;;;5.30;2.20;;;;;;;21.11;62.30;99045.77;105018;1271;75737;-25
2022/07/28 04:18:34;;;;;;;1.90;1.60;;;;;;;21.11;62.43;99043.57;105014;1272;74092;-24
2022/07/28 04:21:02;;;;;;;2.10;1.80;;;;;;;20.91;62.44;99042.82;105053;1271;61762;-25
2022/07/28 04:23:29;;;;;;;4.50;1.90;;;;;;;20.56;64.31;99045.89;105120;1271;62859;-25
2022/07/28 04:25:57;;;;;;;2.20;1.70;;;;;;;20.59;64.39;99053.85;105096;1271;76612;-25
2022/07/28 04:28:24;;;;;;;4.60;2.00;;;;;;;20.63;64.35;99053.85;105030;1271;76981;-25
2022/07/28 04:30:52;;;;;;;4.00;2.00;;;;;;;20.66;64.29;99054.20;104856;1271;75147;-24
2022/07/28 04:33:19;;;;;;;1.50;1.40;;;;;;;20.66;64.39;99055.30;104941;1271;62032;-25
2022/07/28 04:35:51;;;;;;;3.10;2.10;;;;;;;20.68;64.47;99058.20;105049;1271;62951;-25
2022/07/28 04:38:19;;;;;;;4.10;2.20;;;;;;;20.71;64.21;99057.21;104772;1271;76684;-25
2022/07/28 04:40:48;;;;;;;2.90;1.30;;;;;;;20.72;65.09;99055.84;104779;1271;77041;-25
2022/07/28 04:43:15;;;;;;;1.50;1.30;;;;;;;21.37;64.53;99054.58;105040;1271;74349;-24
2022/07/28 04:45:45;;;;;;;2.80;1.20;;;;;;;22.24;62.05;99053.75;104927;1271;62217;-25
2022/07/28 04:48:21;;;;;;;3.30;1.40;;;;;;;22.60;60.87;99052.46;105022;1271;61904;-25
2022/07/28 04:50:51;;;;;;;6.10;2.50;;;;;;;22.61;60.47;99057.86;104920;1271;76357;-25
2022/07/28 04:53:20;;;;;;;3.70;2.00;;;;;;;22.55;60.40;99056.63;104912;1272;76960;-25
2022/07/28 04:55:50;;;;;;;2.70;2.10;;;;;;;22.53;60.69;99061.48;104851;1272;75728;-24
2022/07/28 04:58:19;;;;;;;2.90;1.70;;;;;;;22.49;60.80;99057.23;104752;1271;62900;-25
2022/07/28 05:00:49;;;;;;;3.90;1.70;;;;;;;22.45;61.36;99054.29;104902;1271;61136;-25
2022/07/28 05:03:17;;;;;;;2.60;1.80;;;;;;;22.44;61.53;99055.19;105070;1270;76624;-25
2022/07/28 05:05:45;;;;;;;4.40;2.00;;;;;;;22.56;61.17;99053.64;104768;1271;76931;-25
2022/07/28 05:08:15;;;;;;;2.30;1.60;;;;;;;22.75;60.42;99051.70;105126;1271;75481;-24
2022/07/28 05:10:42;;;;;;;3.90;2.40;;;;;;;22.91;60.15;99053.00;105073;1271;61153;-25
2022/07/28 05:13:09;;;;;;;4.80;1.90;;;;;;;22.88;59.93;99053.67;104884;1274;61148;-25
2022/07/28 05:15:37;;;;;;;2.00;1.50;;;;;;;22.86;60.73;99056.52;105075;1271;75944;-25
2022/07/28 05:18:04;;;;;;;5.50;1.70;;;;;;;22.96;60.72;99058.56;105056;1271;77061;-25
2022/07/28 05:20:32;;;;;;;6.80;2.30;;;;;;;23.06;60.57;99054.84;104805;1274;75112;-24
2022/07/28 05:22:59;;;;;;;2.20;1.40;;;;;;;23.13;60.21;99054.96;104832;1271;63080;-25
2022/07/28 05:25:27;;;;;;;6.50;1.80;;;;;;;23.23;59.64;99055.29;104798;1271;61172;-24
2022/07/28 05:27:54;;;;;;;2.40;1.80;;;;;;;23.32;58.51;99060.02;105110;1271;76540;-25
2022/07/28 05:30:22;;;;;;;3.20;1.80;;;;;;;23.39;58.91;99063.95;104873;1271;76739;-24
2022/07/28 05:32:49;;;;;;;2.00;1.70;;;;;;;23.48;59.23;99073.21;105084;1271;75514;-24
2022/07/28 05:35:17;;;;;;;2.10;1.60;;;;;;;23.44;58.05;99078.45;105075;1274;63069;-24
2022/07/28 05:37:44;;;;;;;3.10;1.60;;;;;;;23.44;58.04;99078.08;104866;1271;62536;-24
2022/07/28 05:40:13;;;;;;;3.30;1.60;;;;;;;23.46;58.07;99078.73;104926;1271;76575;-24
2022/07/28 05:42:45;;;;;;;2.30;1.70;;;;;;;23.38;58.37;99080.03;104710;1272;75998;-24
2022/07/28 05:45:13;;;;;;;5.60;1.40;;;;;;;23.46;58.38;99080.21;104968;1271;74326;-24
2022/07/28 05:47:47;;;;;;;2.30;1.60;;;;;;;23.44;57.44;99083.16;105097;1271;63117;-24
2022/07/28 05:50:15;;;;;;;3.40;2.00;;;;;;;23.40;58.06;99085.45;104725;1271;62065;-24
2022/07/28 05:52:44;;;;;;;2.60;2.00;;;;;;;23.55;58.34;99082.48;104775;1271;76535;-25
2022/07/28 05:55:11;;;;;;;4.20;2.30;;;;;;;23.46;57.51;99083.48;104679;1271;76759;-24
2022/07/28 05:57:39;;;;;;;3.50;2.80;;;;;;;23.46;57.91;99083.40;104782;1271;75342;-24
2022/07/28 06:00:12;;;;;;;2.90;2.10;;;;;;;23.31;58.45;99083.64;104772;1272;62965;-24
2022/07/28 06:02:40;;;;;;;5.50;1.80;;;;;;;23.15;58.84;99089.05;104638;1274;61185;-24
2022/07/28 06:05:08;;;;;;;5.40;1.60;;;;;;;23.47;58.66;99086.05;104973;1271;75402;-24
2022/07/28 06:07:36;;;;;;;4.70;1.80;;;;;;;23.22;57.54;99092.13;104661;1272;76879;-25
2022/07/28 06:10:11;;;;;;;2.30;1.40;;;;;;;23.04;58.65;99092.31;104742;1271;74265;-25
2022/07/28 06:12:40;;;;;;;2.30;1.40;;;;;;;23.35;56.66;99088.34;104702;1271;62073;-23
2022/07/28 06:15:12;;;;;;;2.20;1.10;;;;;;;23.46;56.62;99088.91;104839;1271;61701;-23
2022/07/28 06:17:40;;;;;;;3.00;1.90;;;;;;;23.25;56.19;99087.85;105154;1271;75529;-23
2022/07/28 06:20:09;;;;;;;2.70;1.30;;;;;;;23.10;57.28;99091.32;105096;1271;77063;-24
2022/07/28 06:22:44;;;;;;;2.70;1.50;;;;;;;23.00;57.93;99094.92;104763;1272;75821;-23
2022/07/28 06:25:13;;;;;;;5.60;1.20;;;;;;;23.17;57.24;99095.33;104797;1271;61147;-23
2022/07/28 06:27:40;;;;;;;1.50;1.30;;;;;;;23.45;56.93;99092.32;105101;1271;61935;-23
2022/07/28 06:30:08;;;;;;;4.70;1.30;;;;;;;23.48;56.61;99091.36;104876;1271;76769;-23
2022/07/28 06:32:36;;;;;;;3.20;1.20;;;;;;;23.52;55.74;99091.39;105046;1271;76931;-24
2022/07/28 06:35:04;;;;;;;7.30;5.00;;;;;;;23.37;55.93;99090.42;104742;1271;75165;-23
2022/07/28 06:37:32;;;;;;;3.10;2.50;;;;;;;23.36;55.67;99088.95;104860;1271;61817;-24
2022/07/28 06:39:59;;;;;;;2.60;1.80;;;;;;;23.38;56.34;99089.88;105071;1274;63055;-24
2022/07/28 06:42:26;;;;;;;3.80;2.50;;;;;;;23.48;56.23;99085.93;105066;1272;76525;-23
2022/07/28 06:44:54;;;;;;;2.50;2.00;;;;;;;23.49;55.84;99085.67;104935;1271;75994;-24
2022/07/28 06:47:25;;;;;;;1.90;1.40;;;;;;;23.83;55.28;99084.05;104974;1274;74161;-23
2022/07/28 06:49:53;;;;;;;7.80;4.00;;;;;;;24.03;54.45;99086.64;105087;1271;62784;-23
2022/07/28 06:52:21;;;;;;;6.00;3.00;;;;;;;23.71;53.00;99084.49;105152;1271;62771;-23
2022/07/28 06:54:51;;;;;;;8.10;2.90;;;;;;;23.91;54.00;99085.73;105090;1271;76544;-24
2022/07/28 06:57:24;;;;;;;4.10;3.10;;;;;;;24.13;52.80;99086.22;104835;1271;76998;-24
2022/07/28 07:00:01;;;;;;;4.50;2.60;;;;;;;23.57;51.35;99085.94;105055;1274;75461;-24
2022/07/28 07:02:29;;;;;;;3.50;1.50;;;;;;;24.01;52.53;99090.09;104793;1271;61849;-24
2022/07/28 07:04:56;;;;;;;3.40;1.40;;;;;;;24.12;51.61;99090.48;105102;1271;62418;-24
2022/07/28 07:07:25;;;;;;;1.70;1.10;;;;;;;24.12;51.79;99094.65;105126;1272;75642;-23
2022/07/28 07:09:52;;;;;;;4.20;1.50;;;;;;;24.31;51.49;99102.86;105036;1274;76965;-24
2022/07/28 07:12:20;;;;;;;1.30;1.10;;;;;;;24.14;52.11;99106.98;104832;1274;75552;-24
2022/07/28 07:14:47;;;;;;;1.40;1.00;;;;;;;23.90;51.28;99111.64;104616;1272;63073;-24
2022/07/28 07:17:14;;;;;;;2.50;1.30;;;;;;;23.78;50.82;99114.94;104619;1274;61916;-23
2022/07/28 07:19:41;;;;;;;3.70;2.10;;;;;;;23.83;50.97;99112.15;104710;1271;76578;-23
2022/07/28 07:22:09;;;;;;;2.80;1.20;;;;;;;23.56;50.92;99114.24;104979;1271;76986;-23
2022/07/28 07:24:36;;;;;;;8.70;6.60;;;;;;;23.10;52.32;99111.96;105074;1271;75877;-23
2022/07/28 07:27:04;;;;;;;2.10;1.90;;;;;;;22.87;51.01;99110.98;104941;1272;63123;-24
2022/07/28 07:29:31;;;;;;;7.80;4.30;;;;;;;23.34;50.81;99106.20;105015;1272;63025;-23
2022/07/28 07:31:59;;;;;;;5.50;2.70;;;;;;;23.29;51.06;99107.24;105025;1271;75565;-23
2022/07/28 07:34:26;;;;;;;7.50;2.00;;;;;;;23.73;50.20;99110.06;104766;1271;77170;-23
2022/07/28 07:36:54;;;;;;;3.10;2.00;;;;;;;23.69;49.68;99111.58;105047;1274;74415;-25
2022/07/28 07:39:21;;;;;;;2.30;1.30;;;;;;;23.80;49.51;99114.52;105112;1271;62861;-24
2022/07/28 07:41:48;;;;;;;8.50;5.00;;;;;;;24.37;48.78;99120.59;105007;1271;62028;-24
2022/07/28 07:44:16;;;;;;;2.80;1.80;;;;;;;24.82;47.11;99121.91;104779;1274;76313;-24
2022/07/28 07:46:43;;;;;;;4.00;1.10;;;;;;;25.27;45.42;99122.30;105052;1272;75244;-24
2022/07/28 07:49:11;;;;;;;1.30;1.00;;;;;;;25.20;44.00;99126.79;104834;1271;73506;-24
2022/07/28 07:51:38;;;;;;;1.60;1.10;;;;;;;25.49;45.37;99128.46;105031;1274;63086;-25
2022/07/28 07:54:07;;;;;;;3.80;1.90;;;;;;;25.33;46.15;99128.37;104923;1273;62685;-24
2022/07/28 07:56:35;;;;;;;3.90;2.70;;;;;;;25.33;47.52;99126.71;104954;1271;76339;-24
2022/07/28 07:59:06;;;;;;;2.10;1.20;;;;;;;25.76;45.12;99127.27;104988;1271;76810;-24
2022/07/28 08:01:33;;;;;;;1.40;1.00;;;;;;;25.89;44.54;99124.81;104859;1271;75327;-24
2022/07/28 08:04:06;;;;;;;2.10;1.20;;;;;;;25.94;43.94;99126.48;105034;1271;62892;-25
2022/07/28 08:06:34;;;;;;;3.30;1.00;;;;;;;25.96;45.26;99132.49;104707;1274;61981;-24
2022/07/28 08:09:02;;;;;;;4.90;1.00;;;;;;;25.82;45.67;99134.91;104906;1274;76620;-25
2022/07/28 08:11:29;;;;;;;1.70;1.10;;;;;;;25.28;44.79;99133.74;104953;1271;76964;-25
2022/07/28 08:13:56;;;;;;;3.00;1.10;;;;;;;24.50;46.02;99133.36;104801;1271;75103;-25
2022/07/28 08:16:24;;;;;;;1.90;0.90;;;;;;;24.00;47.47;99137.91;104868;1272;62008;-25
2022/07/28 08:18:52;;;;;;;3.00;1.00;;;;;;;24.23;46.64;99137.81;105118;1270;63294;-24
2022/07/28 08:21:20;;;;;;;3.20;0.80;;;;;;;24.60;46.06;99141.16;105106;1271;75530;-24
2022/07/28 08:23:48;;;;;;;1.00;0.90;;;;;;;25.05;44.99;99135.73;105131;1271;77320;-25
2022/07/28 08:26:15;;;;;;;3.40;1.10;;;;;;;25.39;45.66;99130.92;104796;1272;75407;-24
2022/07/28 08:28:42;;;;;;;2.80;2.40;;;;;;;25.75;44.73;99131.34;104996;1274;62990;-24
2022/07/28 08:31:09;;;;;;;4.10;1.40;;;;;;;25.89;44.05;99139.05;105109;1271;61494;-25
2022/07/28 08:33:37;;;;;;;8.10;3.30;;;;;;;25.64;43.71;99135.73;104892;1274;76292;-24
2022/07/28 08:36:21;;;;;;;11.80;1.40;;;;;;;25.87;43.40;99140.92;105094;1271;75795;-25
2022/07/28 08:38:50;;;;;;;3.40;2.40;;;;;;;25.99;43.90;99142.88;104678;1274;75176;-25
2022/07/28 08:41:28;;;;;;;1.70;1.00;;;;;;;25.66;42.88;99136.80;104786;1272;61868;-25
2022/07/28 08:43:59;;;;;;;1.50;1.00;;;;;;;25.20;43.64;99139.45;104787;1271;61207;-25
2022/07/28 08:46:27;;;;;;;1.50;0.90;;;;;;;25.06;44.54;99138.61;104996;1272;75337;-25
2022/07/28 08:48:54;;;;;;;1.80;0.90;;;;;;;25.08;45.46;99136.70;104988;1272;76869;-25
2022/07/28 08:51:22;;;;;;;3.20;1.50;;;;;;;25.50;45.81;99137.55;104936;1274;75669;-24
2022/07/28 08:53:49;;;;;;;3.80;1.10;;;;;;;25.78;45.37;99139.42;104886;1274;63119;-24
2022/07/28 08:56:17;;;;;;;2.10;1.00;;;;;;;25.25;45.26;99140.20;104909;1270;63301;-25
2022/07/28 08:58:44;;;;;;;5.10;2.00;;;;;;;25.68;44.72;99136.34;104969;1271;76555;-25
2022/07/28 09:01:12;;;;;;;2.70;1.20;;;;;;;25.67;44.82;99140.66;105066;1271;76843;-25
2022/07/28 09:03:39;;;;;;;2.00;1.30;;;;;;;24.83;43.56;99140.83;104977;1271;75365;-24
2022/07/28 09:06:07;;;;;;;4.00;1.30;;;;;;;24.32;44.38;99145.58;104840;1271;63034;-25
2022/07/28 09:08:34;;;;;;;1.20;0.80;;;;;;;25.40;43.21;99142.81;105066;1274;62939;-25
2022/07/28 09:11:02;;;;;;;2.20;1.40;;;;;;;25.97;42.20;99142.91;105077;1271;76582;-25
2022/07/28 09:13:29;;;;;;;2.90;0.90;;;;;;;26.25;42.15;99142.04;105034;1271;77110;-24
2022/07/28 09:15:58;;;;;;;2.50;0.90;;;;;;;26.49;42.57;99142.82;104956;1274;75468;-24
2022/07/28 09:18:26;;;;;;;1.00;0.80;;;;;;;26.51;42.21;99142.45;105140;1271;62148;-24
2022/07/28 09:20:53;;;;;;;2.10;1.00;;;;;;;26.33;41.75;99146.42;105120;1271;62844;-25
2022/07/28 09:23:21;;;;;;;3.70;0.80;;;;;;;26.37;40.96;99148.33;104950;1271;75555;-25
2022/07/28 09:26:08;;;;;;;2.80;0.80;;;;;;;26.81;41.04;99144.17;104683;1271;75684;-25
2022/07/28 09:28:49;;;;;;;2.60;0.90;;;;;;;26.99;40.59;99145.40;104828;1271;75362;-25
2022/07/28 09:31:16;;;;;;;1.10;0.90;;;;;;;26.39;40.71;99153.86;104812;1271;63068;-24
2022/07/28 09:34:01;;;;;;;1.50;0.90;;;;;;;26.45;39.90;99147.15;105103;1271;63173;-25
2022/07/28 09:36:36;;;;;;;1.80;1.00;;;;;;;26.30;40.04;99146.19;105121;1272;75391;-25
2022/07/28 09:39:04;;;;;;;2.20;1.00;;;;;;;26.94;39.65;99145.61;105151;1272;77496;-24
2022/07/28 09:41:48;;;;;;;2.20;1.40;;;;;;;26.88;38.74;99149.58;105109;1271;75367;-25
2022/07/28 09:44:19;;;;;;;1.40;1.20;;;;;;;26.75;40.12;99150.04;104890;1271;63217;-25
2022/07/28 09:46:46;;;;;;;4.20;1.60;;;;;;;27.33;37.30;99147.73;104647;1271;63058;-24
2022/07/28 09:49:14;;;;;;;2.00;1.10;;;;;;;27.61;37.46;99145.99;104771;1271;76564;-25
2022/07/28 09:51:41;;;;;;;2.10;1.20;;;;;;;28.19;36.63;99144.29;104998;1274;77068;-25
2022/07/28 09:54:13;;;;;;;1.20;0.90;;;;;;;28.29;36.84;99142.01;104663;1274;74382;-25
2022/07/28 09:56:43;;;;;;;4.50;2.80;;;;;;;28.06;38.06;99142.19;104734;1272;62164;-25
2022/07/28 09:59:11;;;;;;;0.70;0.70;;;;;;;28.60;38.63;99147.09;104885;1271;61265;-25
2022/07/28 10:01:55;;;;;;;8.60;1.50;;;;;;;28.59;37.04;99148.05;104785;1272;76287;-24
2022/07/28 10:04:33;;;;;;;3.00;1.50;;;;;;;29.07;35.76;99154.00;105100;1271;76702;-25
2022/07/28 10:07:11;;;;;;;3.50;1.10;;;;;;;29.11;35.03;99151.39;104605;1274;75198;-25
2022/07/28 10:09:39;;;;;;;6.70;3.70;;;;;;;29.20;34.50;99150.33;104797;1272;61737;-25
2022/07/28 10:12:12;;;;;;;1.10;0.90;;;;;;;29.21;34.07;99149.73;104730;1272;63134;-25
2022/07/28 10:14:40;;;;;;;5.40;3.50;;;;;;;29.34;33.02;99148.91;104783;1271;76464;-24
2022/07/28 10:17:08;;;;;;;1.90;1.40;;;;;;;29.59;31.84;99146.95;104693;1271;76785;-25
2022/07/28 10:19:36;;;;;;;3.80;1.30;;;;;;;29.82;31.07;99145.52;104701;1271;75073;-25
2022/07/28 10:22:04;;;;;;;1.20;0.70;;;;;;;29.65;31.05;99144.67;104803;1271;63308;-25
2022/07/28 10:24:31;;;;;;;2.00;0.70;;;;;;;28.69;33.94;99144.77;104950;1271;62762;-25
2022/07/28 10:26:58;;;;;;;3.60;1.10;;;;;;;29.05;34.37;99143.55;104694;1271;75246;-24
2022/07/28 10:29:26;;;;;;;6.90;2.20;;;;;;;29.83;33.18;99145.81;105090;1274;75877;-24
2022/07/28 10:31:56;;;;;;;1.40;0.90;;;;;;;28.59;33.33;99145.23;105115;1271;75302;-26
2022/07/28 10:34:34;;;;;;;3.80;0.90;;;;;;;29.40;34.35;99144.38;104720;1271;60962;-25
2022/07/28 10:37:03;;;;;;;2.80;0.80;;;;;;;29.75;33.89;99144.43;104777;1271;62313;-25
2022/07/28 10:39:41;;;;;;;2.80;1.10;;;;;;;29.36;34.38;99142.63;104997;1271;76758;-25
2022/07/28 10:42:11;;;;;;;5.50;1.80;;;;;;;29.08;35.34;99140.07;104797;1271;76406;-25
2022/07/28 10:44:40;;;;;;;1.20;0.90;;;;;;;28.63;35.05;99146.13;104659;1274;75130;-25
2022/07/28 10:47:08;;;;;;;1.20;0.80;;;;;;;29.12;34.33;99146.73;104679;1272;61122;-25
2022/07/28 10:49:44;;;;;;;1.80;0.80;;;;;;;28.31;33.27;99147.02;104759;1271;61090;-25
2022/07/28 10:52:17;;;;;;;1.00;0.60;;;;;;;29.22;33.75;99147.09;104828;1274;76408;-25
2022/07/28 10:55:16;;;;;;;0.70;0.60;;;;;;;29.53;32.67;99145.16;104910;1271;76837;-25
2022/07/28 10:57:59;;;;;;;2.50;0.60;;;;;;;29.73;31.85;99144.95;104924;1271;73685;-25
2022/07/28 11:00:44;;;;;;;2.30;0.60;;;;;;;29.74;31.94;99144.59;104380;1271;483717;-24
2022/07/28 11:03:38;;;;;;;2.00;0.90;;;;;;;29.66;32.05;99144.05;104749;1271;62273;-25
2022/07/28 11:06:44;;;;;;;3.20;0.70;;;;;;;29.91;32.28;99142.26;104666;1271;75562;-25
2022/07/28 11:09:15;;;;;;;1.10;0.70;;;;;;;29.04;32.62;99145.57;104927;1271;77130;-25
2022/07/28 11:11:52;;;;;;;1.90;0.90;;;;;;;28.60;34.50;99143.63;105049;1271;75512;-25
2022/07/28 11:14:23;;;;;;;2.30;1.20;;;;;;;27.63;35.27;99140.57;104737;1274;62802;-25
2022/07/28 11:16:59;;;;;;;1.50;0.80;;;;;;;27.62;36.11;99141.41;104861;1274;62769;-25
2022/07/28 11:19:31;;;;;;;2.40;0.80;;;;;;;28.22;35.46;99142.08;104676;1272;76616;-25
2022/07/28 11:22:14;;;;;;;3.50;0.90;;;;;;;28.60;34.55;99139.71;104571;1271;76000;-25
2022/07/28 11:24:56;;;;;;;2.50;0.80;;;;;;;28.87;33.57;99136.38;104948;1271;73937;-25
2022/07/28 11:27:40;;;;;;;1.30;0.80;;;;;;;29.23;33.42;99142.05;105107;1274;61143;-25
2022/07/28 11:30:35;;;;;;;1.00;0.90;;;;;;;29.55;32.75;99138.34;104835;1271;62940;-25
2022/07/28 11:33:08;;;;;;;0.90;0.70;;;;;;;29.50;32.08;99141.80;105137;1271;76494;-25
2022/07/28 11:35:38;;;;;;;2.10;0.90;;;;;;;29.06;30.14;99137.02;104742;1272;75965;-25
2022/07/28 11:38:07;;;;;;;2.60;0.90;;;;;;;29.03;32.13;99139.05;104754;1271;74526;-25
2022/07/28 11:40:42;;;;;;;1.00;0.90;;;;;;;28.97;32.00;99137.48;104652;1272;61176;-25